Time;durP1;ratioP1;P1;durP2;ratioP2;P2;SDS_P1;SDS_P2;PMS_P1;PMS_P2;Temp;Humidity;BMP_temperature;BMP_pressure;BME280_temperature;BME280_humidity;BME280_pressure;Samples;Min_cycle;Max_cycle;Signal;HPM_P1;HPM_P2
2022/12/03 00:02:01;;;;;;;1999.90;999.90;;;3.00;99.90;;;;;;5031957;28;20179;-70
2022/12/03 00:04:27;;;;;;;1999.90;999.90;;;2.90;99.90;;;;;;5031765;28;20674;-70
2022/12/03 00:06:53;;;;;;;1999.90;999.90;;;2.90;99.90;;;;;;5031646;28;20282;-70
2022/12/03 00:09:18;;;;;;;1999.90;999.90;;;2.80;99.90;;;;;;5031880;28;20199;-71
2022/12/03 00:11:44;;;;;;;1999.90;999.90;;;2.80;99.90;;;;;;5031935;28;20560;-70
2022/12/03 00:14:10;;;;;;;1999.90;999.90;;;2.80;99.90;;;;;;5031781;28;20284;-70
2022/12/03 00:16:35;;;;;;;1999.90;999.90;;;2.80;99.90;;;;;;5031668;28;20208;-70
2022/12/03 00:19:01;;;;;;;1999.90;999.90;;;2.80;99.90;;;;;;5031695;28;20524;-69
2022/12/03 00:21:26;;;;;;;1999.90;999.90;;;2.80;99.90;;;;;;5031778;28;20172;-71
2022/12/03 00:23:52;;;;;;;1999.90;999.90;;;2.90;99.90;;;;;;5031726;28;20188;-70
2022/12/03 00:26:17;;;;;;;1999.90;999.90;;;2.80;99.90;;;;;;5034235;28;20168;-70
2022/12/03 00:28:43;;;;;;;1999.90;999.90;;;2.80;99.90;;;;;;5036466;28;20236;-71
2022/12/03 00:31:09;;;;;;;1999.90;999.90;;;2.80;99.90;;;;;;5036229;28;20175;-71
2022/12/03 00:33:34;;;;;;;1999.90;999.90;;;2.80;99.90;;;;;;5036271;28;20211;-71
2022/12/03 00:36:00;;;;;;;1999.90;999.90;;;2.80;99.90;;;;;;5036289;28;20176;-70
2022/12/03 00:38:25;;;;;;;1999.90;999.90;;;2.80;99.90;;;;;;5036494;28;20172;-70
2022/12/03 00:40:51;;;;;;;1999.90;999.90;;;2.80;99.90;;;;;;5036353;28;20291;-70
2022/12/03 00:43:16;;;;;;;1999.90;999.90;;;2.80;99.90;;;;;;5036795;28;20668;-70
2022/12/03 00:45:42;;;;;;;1999.90;999.90;;;2.80;99.90;;;;;;5036516;28;20198;-71
2022/12/03 00:48:07;;;;;;;1999.90;999.90;;;2.80;99.90;;;;;;5035939;28;20197;-70
2022/12/03 00:50:33;;;;;;;1999.90;999.90;;;2.80;99.90;;;;;;5036316;28;20169;-71
2022/12/03 00:52:58;;;;;;;1999.90;999.90;;;2.80;99.90;;;;;;5036151;28;20192;-70
2022/12/03 00:55:24;;;;;;;1999.90;999.90;;;2.80;99.90;;;;;;5035937;28;20168;-70
2022/12/03 00:57:49;;;;;;;1999.90;999.90;;;2.90;99.90;;;;;;5036098;28;20172;-70
2022/12/03 01:00:15;;;;;;;1999.90;999.90;;;2.80;99.90;;;;;;5035824;28;20168;-71
2022/12/03 01:02:41;;;;;;;1999.90;999.90;;;2.80;99.90;;;;;;5036133;28;20184;-71
2022/12/03 01:05:07;;;;;;;1999.90;999.90;;;2.80;99.90;;;;;;5036036;28;20192;-71
2022/12/03 01:07:33;;;;;;;1999.90;999.90;;;2.80;99.90;;;;;;5035710;28;20215;-70
2022/12/03 01:09:59;;;;;;;1999.90;999.90;;;2.90;99.90;;;;;;5035697;28;20173;-71
2022/12/03 01:12:24;;;;;;;1999.90;999.90;;;2.90;99.90;;;;;;5034753;28;20452;-72
2022/12/03 01:14:50;;;;;;;1999.90;999.90;;;2.90;99.90;;;;;;5034746;28;20532;-72
2022/12/03 01:17:15;;;;;;;1999.90;999.90;;;2.90;99.90;;;;;;5034573;28;20204;-71
2022/12/03 01:19:41;;;;;;;1999.90;999.90;;;2.90;99.90;;;;;;5034647;28;20176;-71
2022/12/03 01:22:07;;;;;;;1999.90;999.90;;;2.90;99.90;;;;;;5034655;28;20796;-72
2022/12/03 01:24:33;;;;;;;1999.90;999.90;;;2.90;99.90;;;;;;5034473;28;20284;-72
2022/12/03 01:26:59;;;;;;;1999.90;999.90;;;3.00;99.90;;;;;;5034316;28;20447;-72
2022/12/03 01:29:25;;;;;;;1999.90;999.90;;;2.90;99.90;;;;;;5034307;28;20406;-72
2022/12/03 01:34:35;;;;;;;1999.90;999.90;;;3.00;99.90;;;;;;5034372;28;20242;-72
2022/12/03 01:37:00;;;;;;;1999.90;999.90;;;3.00;99.90;;;;;;5033927;28;20184;-71
2022/12/03 01:39:26;;;;;;;1999.90;999.90;;;3.00;99.90;;;;;;5033902;28;20218;-71
2022/12/03 01:41:53;;;;;;;1999.90;999.90;;;2.90;99.90;;;;;;5035292;28;20187;-71
2022/12/03 01:44:33;;;;;;;1999.90;999.90;;;3.00;99.90;;;;;;5034850;28;20725;-71
2022/12/03 01:47:02;;;;;;;1999.90;999.90;;;2.90;99.90;;;;;;5034784;28;20249;-70
2022/12/03 01:49:42;;;;;;;1999.90;999.90;;;2.90;99.90;;;;;;5034627;28;20161;-70
2022/12/03 01:52:20;;;;;;;1999.90;999.90;;;2.90;99.90;;;;;;5035239;28;20590;-70
2022/12/03 01:54:58;;;;;;;1999.90;999.90;;;2.90;99.90;;;;;;5034951;28;20186;-71
2022/12/03 01:57:27;;;;;;;1999.90;999.90;;;3.00;99.90;;;;;;5034736;28;20196;-71
2022/12/03 01:59:54;;;;;;;1999.90;999.90;;;3.00;99.90;;;;;;5034774;28;20259;-70
2022/12/03 02:02:27;;;;;;;1999.90;999.90;;;2.90;99.90;;;;;;5034461;28;20545;-71
2022/12/03 02:04:53;;;;;;;1999.90;999.90;;;3.00;99.90;;;;;;5033967;28;20318;-71
2022/12/03 02:07:25;;;;;;;1999.90;999.90;;;3.00;99.90;;;;;;5033718;28;20212;-71
2022/12/03 02:09:52;;;;;;;1999.90;999.90;;;3.00;99.90;;;;;;5033814;28;20411;-71
2022/12/03 02:12:24;;;;;;;1999.90;999.90;;;3.10;99.90;;;;;;5033642;28;20287;-71
2022/12/03 02:14:50;;;;;;;1999.90;999.90;;;3.10;99.90;;;;;;5033737;28;20418;-71
2022/12/03 02:17:16;;;;;;;1999.90;999.90;;;3.10;99.90;;;;;;5033362;28;20650;-72
2022/12/03 02:19:42;;;;;;;1999.90;999.90;;;3.10;99.90;;;;;;5033476;28;20218;-72
2022/12/03 02:22:22;;;;;;;1999.90;999.90;;;3.10;99.90;;;;;;5033542;28;20208;-71
2022/12/03 02:24:58;;;;;;;1999.90;999.90;;;3.10;99.90;;;;;;5033604;28;20184;-72
2022/12/03 02:27:26;;;;;;;1999.90;999.90;;;3.10;99.90;;;;;;5033140;28;20200;-71
2022/12/03 02:29:52;;;;;;;1999.90;999.90;;;3.00;99.90;;;;;;5033338;28;20557;-71
2022/12/03 02:32:20;;;;;;;1999.90;999.90;;;3.10;99.90;;;;;;5033261;28;20178;-71
2022/12/03 02:34:45;;;;;;;1999.90;999.90;;;3.10;99.90;;;;;;5033327;28;20172;-71
2022/12/03 02:37:18;;;;;;;1999.90;999.90;;;3.10;99.90;;;;;;5032993;28;20536;-71
2022/12/03 02:39:49;;;;;;;1999.90;999.90;;;3.10;99.90;;;;;;5033110;28;20259;-71
2022/12/03 02:42:34;;;;;;;1999.90;999.90;;;3.10;99.90;;;;;;5033081;28;20561;-71
2022/12/03 02:45:30;;;;;;;1999.90;999.90;;;3.10;99.90;;;;;;5033176;28;20176;-71
2022/12/03 02:48:04;;;;;;;1999.90;999.90;;;3.20;99.90;;;;;;5023569;28;20295;-71
2022/12/03 02:50:33;;;;;;;1999.90;999.90;;;3.10;99.90;;;;;;5033461;28;20175;-71
2022/12/03 02:53:02;;;;;;;1999.90;999.90;;;3.10;99.90;;;;;;5032748;28;20216;-71
2022/12/03 02:55:29;;;;;;;1999.90;999.90;;;3.10;99.90;;;;;;5032912;28;20169;-71
2022/12/03 02:57:55;;;;;;;1999.90;999.90;;;3.10;99.90;;;;;;5032643;28;20186;-71
2022/12/03 03:00:21;;;;;;;1999.90;999.90;;;3.10;99.90;;;;;;5032854;28;20255;-71
2022/12/03 03:02:49;;;;;;;1999.90;999.90;;;3.10;99.90;;;;;;5032769;28;20196;-71
2022/12/03 03:05:18;;;;;;;1999.90;999.90;;;3.10;99.90;;;;;;5032559;28;20665;-71
2022/12/03 03:07:44;;;;;;;1999.90;999.90;;;3.00;99.90;;;;;;5032423;28;20204;-71
2022/12/03 03:10:14;;;;;;;1999.90;999.90;;;3.00;99.90;;;;;;5033732;28;20306;-70
2022/12/03 03:12:39;;;;;;;1999.90;999.90;;;3.00;99.90;;;;;;5033807;28;20188;-71
2022/12/03 03:15:06;;;;;;;1999.90;999.90;;;3.00;99.90;;;;;;5033648;28;20974;-70
2022/12/03 03:17:33;;;;;;;1999.90;999.90;;;3.00;99.90;;;;;;5033288;28;20246;-70
2022/12/03 03:19:58;;;;;;;1999.90;999.90;;;3.00;99.90;;;;;;5033410;28;20752;-70
2022/12/03 03:22:36;;;;;;;1999.90;999.90;;;3.00;99.90;;;;;;5033302;28;20410;-71
2022/12/03 03:25:03;;;;;;;1999.90;999.90;;;3.00;99.90;;;;;;5033249;28;20164;-70
2022/12/03 03:27:29;;;;;;;1999.90;999.90;;;3.10;99.90;;;;;;5033044;28;20330;-70
2022/12/03 03:29:57;;;;;;;1999.90;999.90;;;3.00;99.90;;;;;;5033551;28;20216;-70
2022/12/03 03:32:23;;;;;;;1999.90;999.90;;;3.10;99.90;;;;;;5033635;28;20214;-70
2022/12/03 03:34:49;;;;;;;1999.90;999.90;;;3.10;99.90;;;;;;5033490;28;20654;-71
2022/12/03 03:37:15;;;;;;;1999.90;999.90;;;3.10;99.90;;;;;;5033096;28;20179;-70
2022/12/03 03:39:40;;;;;;;1999.90;999.90;;;3.10;99.90;;;;;;5033702;28;20441;-71
2022/12/03 03:42:06;;;;;;;1999.90;999.90;;;3.10;99.90;;;;;;5033454;28;20251;-70
2022/12/03 03:44:32;;;;;;;1999.90;999.90;;;3.10;99.90;;;;;;5033508;28;20192;-70
2022/12/03 03:46:58;;;;;;;1999.90;999.90;;;3.20;99.90;;;;;;5032870;28;20657;-70
2022/12/03 03:49:24;;;;;;;1999.90;999.90;;;3.20;99.90;;;;;;5033541;28;20409;-71
2022/12/03 03:51:50;;;;;;;1999.90;999.90;;;3.20;99.90;;;;;;5033586;28;20164;-70
2022/12/03 03:54:16;;;;;;;1999.90;999.90;;;3.30;99.90;;;;;;5033389;28;20192;-71
2022/12/03 03:56:42;;;;;;;1999.90;999.90;;;3.30;99.90;;;;;;5033254;28;20437;-70
2022/12/03 03:59:07;;;;;;;1999.90;999.90;;;3.20;99.90;;;;;;5033416;28;20172;-70
2022/12/03 04:01:33;;;;;;;1999.90;999.90;;;3.30;99.90;;;;;;5033466;28;20164;-70
2022/12/03 04:03:59;;;;;;;1999.90;999.90;;;3.20;99.90;;;;;;5033455;28;20194;-70
2022/12/03 04:06:27;;;;;;;1999.90;999.90;;;3.30;99.90;;;;;;5033430;28;20578;-70
2022/12/03 04:08:53;;;;;;;1999.90;999.90;;;3.30;99.90;;;;;;5033568;28;20199;-71
2022/12/03 04:14:02;;;;;;;1999.90;999.90;;;3.30;99.90;;;;;;5033411;28;20708;-70
2022/12/03 04:16:28;;;;;;;1999.90;999.90;;;3.40;99.90;;;;;;5033091;28;20403;-70
2022/12/03 04:18:54;;;;;;;1999.90;999.90;;;3.30;99.90;;;;;;5033132;28;20630;-70
2022/12/03 04:24:09;;;;;;;1999.90;999.90;;;3.40;99.90;;;;;;5033367;28;20219;-70
2022/12/03 04:29:19;;;;;;;1999.90;999.90;;;3.30;99.90;;;;;;5032999;28;20201;-71
2022/12/03 04:37:13;;;;;;;1999.90;999.90;;;3.30;99.90;;;;;;5032803;28;20267;-71
2022/12/03 04:39:39;;;;;;;1999.90;999.90;;;3.30;99.90;;;;;;5032972;28;20196;-71
2022/12/03 04:42:05;;;;;;;1999.90;999.90;;;3.30;99.90;;;;;;5032909;28;20177;-70
2022/12/03 04:44:35;;;;;;;1999.90;999.90;;;3.30;99.90;;;;;;5032920;28;20219;-71
2022/12/03 04:47:14;;;;;;;1999.90;999.90;;;3.30;99.90;;;;;;5032814;28;20533;-70
2022/12/03 04:49:42;;;;;;;1999.90;999.90;;;3.30;99.90;;;;;;5032620;28;20204;-70
2022/12/03 04:52:10;;;;;;;1999.90;999.90;;;3.30;99.90;;;;;;5032515;28;20181;-70
2022/12/03 04:54:37;;;;;;;1999.90;999.90;;;3.30;99.90;;;;;;5032012;28;20963;-71
2022/12/03 04:57:03;;;;;;;1999.90;999.90;;;3.30;99.90;;;;;;5031992;28;20414;-71
2022/12/03 04:59:29;;;;;;;1999.90;999.90;;;3.30;99.90;;;;;;5032274;28;20176;-71
2022/12/03 05:01:54;;;;;;;1999.90;999.90;;;3.20;99.90;;;;;;5032412;28;20634;-71
2022/12/03 05:04:20;;;;;;;1999.90;999.90;;;3.20;99.90;;;;;;5032099;28;20196;-70
2022/12/03 05:06:46;;;;;;;1999.90;999.90;;;3.20;99.90;;;;;;5031990;28;20212;-70
2022/12/03 05:09:12;;;;;;;1999.90;999.90;;;3.20;99.90;;;;;;5032287;28;20164;-70
2022/12/03 05:11:38;;;;;;;1999.90;999.90;;;3.20;99.90;;;;;;5032136;28;20188;-70
2022/12/03 05:14:04;;;;;;;1999.90;999.90;;;3.20;99.90;;;;;;5034498;28;20430;-70
2022/12/03 05:16:29;;;;;;;1999.90;999.90;;;3.20;99.90;;;;;;5036019;28;20395;-70
2022/12/03 05:18:55;;;;;;;1999.90;999.90;;;3.20;99.90;;;;;;5035521;28;20544;-70
2022/12/03 05:21:21;;;;;;;1999.90;999.90;;;3.20;99.90;;;;;;5035391;28;20207;-70
2022/12/03 05:23:46;;;;;;;1999.90;999.90;;;3.10;99.90;;;;;;5035852;28;20259;-70
2022/12/03 05:26:12;;;;;;;1999.90;999.90;;;3.10;99.90;;;;;;5035459;28;20179;-70
2022/12/03 05:28:37;;;;;;;1999.90;999.90;;;3.10;99.90;;;;;;5035321;28;20208;-70
2022/12/03 05:31:03;;;;;;;1999.90;999.90;;;3.10;99.90;;;;;;5035983;28;20310;-70
2022/12/03 05:33:30;;;;;;;1999.90;999.90;;;3.10;99.90;;;;;;5035671;28;20271;-70
2022/12/03 05:35:55;;;;;;;1999.90;999.90;;;3.10;99.90;;;;;;5035813;28;20395;-71
2022/12/03 05:38:21;;;;;;;1999.90;999.90;;;3.00;99.90;;;;;;5035511;28;20176;-71
2022/12/03 05:40:46;;;;;;;1999.90;999.90;;;3.00;99.90;;;;;;5035915;28;20171;-70
2022/12/03 05:43:12;;;;;;;1999.90;999.90;;;3.00;99.90;;;;;;5035456;28;20844;-70
2022/12/03 05:45:40;;;;;;;1999.90;999.90;;;3.00;99.90;;;;;;5035389;28;20172;-71
2022/12/03 05:48:09;;;;;;;1999.90;999.90;;;3.00;99.90;;;;;;5035004;28;20196;-70
2022/12/03 05:50:36;;;;;;;1999.90;999.90;;;2.90;99.90;;;;;;5035404;28;20172;-70
2022/12/03 05:53:02;;;;;;;1999.90;999.90;;;2.90;99.90;;;;;;5035017;28;20195;-71
2022/12/03 05:55:28;;;;;;;1999.90;999.90;;;2.90;99.90;;;;;;5035023;28;20176;-70
2022/12/03 05:57:54;;;;;;;1999.90;999.90;;;2.90;99.90;;;;;;5034802;28;20419;-70
2022/12/03 06:00:22;;;;;;;1999.90;999.90;;;3.00;99.90;;;;;;5035002;28;20548;-70
2022/12/03 06:02:48;;;;;;;1999.90;999.90;;;2.90;99.90;;;;;;5034838;28;20214;-70
2022/12/03 06:05:15;;;;;;;1999.90;999.90;;;2.90;99.90;;;;;;5034598;28;20184;-70
2022/12/03 06:07:41;;;;;;;1999.90;999.90;;;2.90;99.90;;;;;;5034296;28;20203;-70
2022/12/03 06:10:10;;;;;;;1999.90;999.90;;;3.00;99.90;;;;;;5034812;28;20239;-70
2022/12/03 06:12:35;;;;;;;1999.90;999.90;;;2.90;99.90;;;;;;5035164;28;20196;-70
2022/12/03 06:15:01;;;;;;;1999.90;999.90;;;2.90;99.90;;;;;;5034626;28;20558;-70
2022/12/03 06:17:26;;;;;;;1999.90;999.90;;;2.90;99.90;;;;;;5034442;28;20246;-70
2022/12/03 06:19:52;;;;;;;1999.90;999.90;;;2.90;99.90;;;;;;5034347;28;20330;-70
2022/12/03 06:22:18;;;;;;;1999.90;999.90;;;2.90;99.90;;;;;;5034629;28;20172;-70
2022/12/03 06:24:44;;;;;;;1999.90;999.90;;;3.00;99.90;;;;;;5034422;28;20540;-70
2022/12/03 06:27:10;;;;;;;1999.90;999.90;;;3.00;99.90;;;;;;5033202;28;20207;-70
2022/12/03 06:29:36;;;;;;;1999.90;999.90;;;3.00;99.90;;;;;;5033421;28;20854;-70
2022/12/03 06:32:02;;;;;;;1999.90;999.90;;;3.00;99.90;;;;;;5033432;28;20539;-70
2022/12/03 06:34:28;;;;;;;1999.90;999.90;;;3.00;99.90;;;;;;5033321;28;20717;-70
2022/12/03 06:36:53;;;;;;;1999.90;999.90;;;3.10;99.90;;;;;;5033125;28;20179;-70
2022/12/03 06:39:19;;;;;;;1999.90;999.90;;;3.10;99.90;;;;;;5033359;28;20168;-70
2022/12/03 06:41:44;;;;;;;1999.90;999.90;;;3.10;99.90;;;;;;5033282;28;20175;-70
2022/12/03 06:44:10;;;;;;;1999.90;999.90;;;3.00;99.90;;;;;;5033194;28;20192;-70
2022/12/03 06:46:36;;;;;;;1999.90;999.90;;;3.10;99.90;;;;;;5033154;28;20718;-71
2022/12/03 06:49:01;;;;;;;1999.90;999.90;;;3.10;99.90;;;;;;5032924;28;20199;-70
2022/12/03 06:51:27;;;;;;;1999.90;999.90;;;3.10;99.90;;;;;;5033164;28;20168;-70
2022/12/03 06:53:53;;;;;;;1999.90;999.90;;;3.10;99.90;;;;;;5032874;28;20193;-70
2022/12/03 06:56:18;;;;;;;1999.90;999.90;;;3.10;99.90;;;;;;5032923;28;20259;-70
2022/12/03 06:58:44;;;;;;;1999.90;999.90;;;3.10;99.90;;;;;;5032741;28;20255;-70
2022/12/03 07:01:09;;;;;;;1999.90;999.90;;;3.10;99.90;;;;;;5032899;28;20172;-70
2022/12/03 07:03:35;;;;;;;1999.90;999.90;;;3.10;99.90;;;;;;5032715;28;20772;-70
2022/12/03 07:06:00;;;;;;;1999.90;999.90;;;3.10;99.90;;;;;;5032652;28;20195;-71
2022/12/03 07:08:26;;;;;;;1999.90;999.90;;;3.10;99.90;;;;;;5032521;28;20279;-71
2022/12/03 07:10:52;;;;;;;1999.90;999.90;;;3.10;99.90;;;;;;5032689;28;20255;-70
2022/12/03 07:13:18;;;;;;;1999.90;999.90;;;3.00;99.90;;;;;;5032555;28;20911;-71
2022/12/03 07:15:43;;;;;;;1999.90;999.90;;;3.10;99.90;;;;;;5032562;28;20168;-71
2022/12/03 07:18:09;;;;;;;1999.90;999.90;;;3.10;99.90;;;;;;5032240;28;20215;-71
2022/12/03 07:20:35;;;;;;;1999.90;999.90;;;3.10;99.90;;;;;;5032985;28;20164;-70
2022/12/03 07:23:00;;;;;;;1999.90;999.90;;;3.20;99.90;;;;;;5033344;28;20422;-71
2022/12/03 07:25:26;;;;;;;1999.90;999.90;;;3.20;99.90;;;;;;5033345;28;20226;-70
2022/12/03 07:27:51;;;;;;;1999.90;999.90;;;3.20;99.90;;;;;;5033029;28;20318;-70
2022/12/03 07:30:17;;;;;;;1999.90;999.90;;;3.30;99.90;;;;;;5033247;28;20598;-70
2022/12/03 07:32:43;;;;;;;1999.90;999.90;;;3.20;99.90;;;;;;5033603;28;20234;-70
2022/12/03 07:35:09;;;;;;;1999.90;999.90;;;3.20;99.90;;;;;;5032813;28;20399;-70
2022/12/03 07:37:34;;;;;;;1999.90;999.90;;;3.30;99.90;;;;;;5032682;28;20630;-71
2022/12/03 07:40:00;;;;;;;1999.90;999.90;;;3.20;99.90;;;;;;5032200;28;20460;-72
2022/12/03 07:42:26;;;;;;;1999.90;999.90;;;3.20;99.90;;;;;;5032112;28;20172;-72
2022/12/03 07:44:52;;;;;;;1999.90;999.90;;;3.20;99.90;;;;;;5032097;28;20581;-72
2022/12/03 07:47:17;;;;;;;1999.90;999.90;;;3.20;99.90;;;;;;5031845;28;20275;-72
2022/12/03 07:49:43;;;;;;;1999.90;999.90;;;3.30;99.90;;;;;;5032051;28;20168;-72
2022/12/03 07:52:08;;;;;;;1999.90;999.90;;;3.30;99.90;;;;;;5032062;28;20541;-72
2022/12/03 07:54:34;;;;;;;1999.90;999.90;;;3.30;99.90;;;;;;5031936;28;20192;-72
2022/12/03 07:57:00;;;;;;;1999.90;999.90;;;3.30;99.90;;;;;;5031726;28;20633;-71
2022/12/03 07:59:26;;;;;;;1999.90;999.90;;;3.30;99.90;;;;;;5031961;28;20178;-71
2022/12/03 08:01:51;;;;;;;1999.90;999.90;;;3.30;99.90;;;;;;5031884;28;20634;-71
2022/12/03 08:04:17;;;;;;;1999.90;999.90;;;3.30;99.90;;;;;;5031956;28;20438;-71
2022/12/03 08:06:44;;;;;;;1999.90;999.90;;;3.30;99.90;;;;;;5031697;28;20180;-71
2022/12/03 08:09:10;;;;;;;1999.90;999.90;;;3.30;99.90;;;;;;5031839;28;20854;-72
2022/12/03 08:11:35;;;;;;;1999.90;999.90;;;3.20;99.90;;;;;;5031794;28;20192;-72
2022/12/03 08:14:06;;;;;;;1999.90;999.90;;;3.20;99.90;;;;;;5031799;28;20211;-72
2022/12/03 08:16:37;;;;;;;1999.90;999.90;;;3.30;99.90;;;;;;5031666;28;20176;-72
2022/12/03 08:19:08;;;;;;;1999.90;999.90;;;3.30;99.90;;;;;;5031904;28;20473;-70
2022/12/03 08:21:35;;;;;;;1999.90;999.90;;;3.20;99.90;;;;;;5032229;28;20173;-70
2022/12/03 08:24:13;;;;;;;1999.90;999.90;;;3.20;99.90;;;;;;5032623;28;20279;-70
2022/12/03 08:26:39;;;;;;;1999.90;999.90;;;3.30;99.90;;;;;;5033609;28;20164;-70
2022/12/03 08:29:12;;;;;;;1999.90;999.90;;;3.30;99.90;;;;;;5053405;28;20203;-70
2022/12/03 08:31:38;;;;;;;1999.90;999.90;;;3.30;99.90;;;;;;5052794;28;20164;-70
2022/12/03 08:34:36;;;;;;;1999.90;999.90;;;3.30;99.90;;;;;;5052757;28;20188;-70
2022/12/03 08:37:13;;;;;;;1999.90;999.90;;;3.40;99.90;;;;;;5052348;28;20236;-70
2022/12/03 08:39:45;;;;;;;1999.90;999.90;;;3.40;99.90;;;;;;5052857;28;20202;-70
2022/12/03 08:42:41;;;;;;;1999.90;999.90;;;3.40;99.90;;;;;;5051785;28;20182;-70
2022/12/03 08:45:29;;;;;;;1999.90;999.90;;;3.40;99.90;;;;;;5052670;28;20180;-70
2022/12/03 08:47:55;;;;;;;1999.90;999.90;;;3.40;99.90;;;;;;5054722;28;20207;-70
2022/12/03 08:50:41;;;;;;;1999.90;999.90;;;3.50;99.90;;;;;;5056520;28;20772;-70
2022/12/03 08:53:13;;;;;;;1999.90;999.90;;;3.50;99.90;;;;;;5056516;28;20569;-70
2022/12/03 08:55:45;;;;;;;1999.90;999.90;;;3.50;99.90;;;;;;5056091;28;20164;-70
2022/12/03 08:58:30;;;;;;;1999.90;999.90;;;3.50;99.90;;;;;;5056022;28;20189;-70
2022/12/03 09:01:09;;;;;;;1999.90;999.90;;;3.60;99.90;;;;;;5056108;28;20452;-70
2022/12/03 09:03:36;;;;;;;1999.90;999.90;;;3.60;99.90;;;;;;5055225;28;20475;-71
2022/12/03 09:06:02;;;;;;;1999.90;999.90;;;3.60;99.90;;;;;;5054700;28;20188;-72
2022/12/03 09:08:28;;;;;;;1999.90;999.90;;;3.60;99.90;;;;;;5054619;28;20248;-72
2022/12/03 09:10:54;;;;;;;1999.90;999.90;;;3.60;99.90;;;;;;5055036;28;20791;-71
2022/12/03 09:13:19;;;;;;;1999.90;999.90;;;3.70;99.90;;;;;;5054721;28;20245;-71
2022/12/03 09:15:45;;;;;;;1999.90;999.90;;;3.70;99.90;;;;;;5054736;28;20250;-71
2022/12/03 09:18:11;;;;;;;1999.90;999.90;;;3.70;99.90;;;;;;5054052;28;20672;-71
2022/12/03 09:20:36;;;;;;;1999.90;999.90;;;3.80;99.90;;;;;;5054634;28;20337;-71
2022/12/03 09:23:02;;;;;;;1999.90;999.90;;;3.70;99.90;;;;;;5054611;28;20294;-71
2022/12/03 09:25:27;;;;;;;1999.90;999.90;;;3.80;99.90;;;;;;5054600;28;20690;-71
2022/12/03 09:27:53;;;;;;;1999.90;999.90;;;3.80;99.90;;;;;;5054189;28;20683;-71
2022/12/03 09:30:19;;;;;;;1999.90;999.90;;;3.80;99.90;;;;;;5054441;28;20577;-71
2022/12/03 09:32:44;;;;;;;1999.90;999.90;;;3.90;99.90;;;;;;5054363;28;20187;-72
2022/12/03 09:35:10;;;;;;;1999.90;999.90;;;3.90;99.90;;;;;;5054494;28;20171;-71
2022/12/03 09:37:35;;;;;;;1999.90;999.90;;;3.90;99.90;;;;;;5054105;28;20172;-71
2022/12/03 09:40:02;;;;;;;1999.90;999.90;;;3.90;99.90;;;;;;5054225;28;20172;-71
2022/12/03 09:42:27;;;;;;;1999.90;999.90;;;4.00;99.90;;;;;;5054184;28;20163;-72
2022/12/03 09:44:53;;;;;;;1999.90;999.90;;;4.00;99.90;;;;;;5054139;28;20410;-72
2022/12/03 09:47:19;;;;;;;1999.90;999.90;;;4.10;99.90;;;;;;5053827;28;20227;-71
2022/12/03 09:49:45;;;;;;;1999.90;999.90;;;4.20;99.90;;;;;;5054271;28;20801;-71
2022/12/03 09:52:17;;;;;;;1999.90;999.90;;;4.20;99.90;;;;;;5053682;28;20199;-71
2022/12/03 09:54:43;;;;;;;1999.90;999.90;;;4.30;99.90;;;;;;5054690;28;20457;-71
2022/12/03 09:57:12;;;;;;;1999.90;999.90;;;4.30;99.90;;;;;;5054919;28;20411;-71
2022/12/03 09:59:38;;;;;;;1999.90;999.90;;;4.40;99.90;;;;;;5054633;28;20176;-70
2022/12/03 10:02:16;;;;;;;1999.90;999.90;;;4.50;99.90;;;;;;5055341;28;20972;-70
2022/12/03 10:04:42;;;;;;;1999.90;999.90;;;4.50;99.90;;;;;;5050932;28;20454;-70
2022/12/03 10:07:08;;;;;;;1999.90;999.90;;;4.50;99.90;;;;;;5032478;28;20459;-68
2022/12/03 10:09:34;;;;;;;1999.90;999.90;;;4.60;99.90;;;;;;5034680;28;20200;-68
2022/12/03 10:12:00;;;;;;;1999.90;999.90;;;4.60;99.90;;;;;;5035741;28;20399;-68
2022/12/03 10:14:26;;;;;;;1999.90;999.90;;;4.60;99.90;;;;;;5034115;28;20756;-69
2022/12/03 10:16:52;;;;;;;1999.90;999.90;;;4.60;99.90;;;;;;5033156;28;20738;-68
2022/12/03 10:19:23;;;;;;;1999.90;999.90;;;4.60;99.90;;;;;;5032598;28;20541;-68
2022/12/03 10:21:49;;;;;;;1999.90;999.90;;;4.70;99.90;;;;;;5032719;28;20168;-68
2022/12/03 10:24:29;;;;;;;1999.90;999.90;;;4.80;99.90;;;;;;5033005;28;20423;-70
2022/12/03 10:27:00;;;;;;;1999.90;999.90;;;4.80;99.90;;;;;;5033012;28;20410;-69
2022/12/03 10:29:34;;;;;;;1999.90;999.90;;;4.80;99.90;;;;;;5032342;28;20960;-68
2022/12/03 10:32:02;;;;;;;1999.90;999.90;;;4.90;99.90;;;;;;5032941;28;20419;-69
2022/12/03 10:34:34;;;;;;;1999.90;999.90;;;4.80;99.90;;;;;;5034410;28;20449;-72
2022/12/03 10:37:17;;;;;;;1999.90;999.90;;;4.90;99.90;;;;;;5033083;28;20935;-70
2022/12/03 10:40:07;;;;;;;1999.90;999.90;;;4.90;99.90;;;;;;5033515;28;20904;-69
2022/12/03 10:42:34;;;;;;;1999.90;999.90;;;4.90;99.90;;;;;;5033440;28;20403;-70
2022/12/03 10:45:21;;;;;;;1999.90;999.90;;;4.90;99.90;;;;;;5033368;28;20408;-69
2022/12/03 10:48:09;;;;;;;1999.90;999.90;;;5.00;99.90;;;;;;5032708;28;20457;-70
2022/12/03 10:50:35;;;;;;;1999.90;999.90;;;5.00;99.90;;;;;;5032480;28;20450;-70
2022/12/03 10:53:03;;;;;;;1999.90;999.90;;;5.10;99.90;;;;;;5032830;28;20506;-70
2022/12/03 10:55:34;;;;;;;1999.90;999.90;;;5.10;99.90;;;;;;5029587;28;20403;-70
2022/12/03 10:58:00;;;;;;;1999.90;999.90;;;5.10;99.90;;;;;;5032697;28;20414;-70
2022/12/03 11:00:25;;;;;;;1999.90;999.90;;;5.10;99.90;;;;;;5032610;28;20411;-69
2022/12/03 11:02:51;;;;;;;1999.90;999.90;;;5.10;99.90;;;;;;5031693;28;20184;-70
2022/12/03 11:05:22;;;;;;;1999.90;999.90;;;5.10;99.90;;;;;;5032063;28;20192;-70
2022/12/03 11:07:47;;;;;;;1999.90;999.90;;;5.00;99.90;;;;;;5031575;28;20188;-70
2022/12/03 11:10:15;;;;;;;1999.90;999.90;;;5.00;99.90;;;;;;5030205;28;20426;-69
2022/12/03 11:13:01;;;;;;;1999.90;999.90;;;5.00;99.90;;;;;;5031394;28;20278;-70
2022/12/03 11:15:42;;;;;;;1999.90;999.90;;;5.00;99.90;;;;;;5031607;28;20407;-69
2022/12/03 11:18:08;;;;;;;1999.90;999.90;;;5.10;99.90;;;;;;5031266;28;20413;-70
2022/12/03 11:20:46;;;;;;;1999.90;999.90;;;5.10;99.90;;;;;;5031681;28;20395;-69
2022/12/03 11:23:11;;;;;;;1999.90;999.90;;;5.10;99.90;;;;;;5031622;28;20188;-70
2022/12/03 11:25:49;;;;;;;1999.90;999.90;;;5.20;99.90;;;;;;5031142;28;20436;-70
2022/12/03 11:28:17;;;;;;;1999.90;999.90;;;5.10;99.90;;;;;;5031126;28;20253;-70
2022/12/03 11:30:49;;;;;;;1999.90;999.90;;;5.20;99.90;;;;;;5030994;28;20406;-70
2022/12/03 11:33:31;;;;;;;1999.90;999.90;;;5.30;99.90;;;;;;5031884;28;20480;-69
2022/12/03 11:36:18;;;;;;;1999.90;999.90;;;5.30;99.90;;;;;;5032137;28;20399;-70
2022/12/03 11:38:50;;;;;;;1999.90;999.90;;;5.30;99.90;;;;;;5032254;28;20426;-70
2022/12/03 11:41:23;;;;;;;1999.90;999.90;;;5.40;99.90;;;;;;5032148;28;20795;-70
2022/12/03 11:43:51;;;;;;;1999.90;999.90;;;5.50;99.90;;;;;;5031895;28;20430;-70
2022/12/03 11:46:20;;;;;;;1999.90;999.90;;;5.40;99.90;;;;;;5031951;28;20494;-70
2022/12/03 11:48:48;;;;;;;1999.90;999.90;;;5.40;99.90;;;;;;5031775;28;20956;-70
2022/12/03 11:51:19;;;;;;;1999.90;999.90;;;5.40;99.90;;;;;;5031734;28;20844;-69
2022/12/03 11:53:45;;;;;;;1999.90;999.90;;;5.40;99.90;;;;;;5031873;28;20442;-71
2022/12/03 11:56:18;;;;;;;1999.90;999.90;;;5.40;99.90;;;;;;5031686;28;20438;-71
2022/12/03 11:58:46;;;;;;;1999.90;999.90;;;5.40;99.90;;;;;;5031540;28;20418;-71
2022/12/03 12:01:13;;;;;;;1999.90;999.90;;;5.40;99.90;;;;;;5031633;28;20573;-72
2022/12/03 12:03:49;;;;;;;1999.90;999.90;;;5.40;99.90;;;;;;5031302;28;20442;-70
2022/12/03 12:06:17;;;;;;;1999.90;999.90;;;5.50;99.90;;;;;;5030084;28;20449;-70
2022/12/03 12:08:51;;;;;;;1999.90;999.90;;;5.40;99.90;;;;;;5031713;28;20930;-71
2022/12/03 12:11:28;;;;;;;1999.90;999.90;;;5.30;99.90;;;;;;5032304;28;20410;-71
2022/12/03 12:13:57;;;;;;;1999.90;999.90;;;5.30;99.90;;;;;;5031207;28;20439;-71
2022/12/03 12:16:39;;;;;;;1999.90;999.90;;;5.20;99.90;;;;;;5032117;28;20490;-71
2022/12/03 12:19:30;;;;;;;1999.90;999.90;;;5.30;99.90;;;;;;5032262;28;20484;-71
2022/12/03 12:22:12;;;;;;;1999.90;999.90;;;5.30;99.90;;;;;;5033481;28;20407;-71
2022/12/03 12:24:47;;;;;;;1999.90;999.90;;;5.30;99.90;;;;;;5036573;28;20838;-71
2022/12/03 12:27:39;;;;;;;1999.90;999.90;;;5.30;99.90;;;;;;5035529;28;20449;-72
2022/12/03 12:30:14;;;;;;;1999.90;999.90;;;5.20;99.90;;;;;;5035677;28;20438;-73
2022/12/03 12:32:51;;;;;;;1999.90;999.90;;;5.20;99.90;;;;;;5035554;28;20422;-72